Time;durP1;ratioP1;P1;durP2;ratioP2;P2;SDS_P1;SDS_P2;PMS_P1;PMS_P2;Temp;Humidity;BMP_temperature;BMP_pressure;BME280_temperature;BME280_humidity;BME280_pressure;Samples;Min_cycle;Max_cycle;Signal;HPM_P1;HPM_P2
2023/01/23 00:02:26;;;;;;;35.57;15.50;;;;;;;-0.71;100.00;102572.50;5043234;28;20202;-76
2023/01/23 00:04:52;;;;;;;37.60;16.00;;;;;;;-0.71;100.00;102578.50;5030034;28;20239;-76
2023/01/23 00:07:19;;;;;;;36.10;16.47;;;;;;;-0.68;100.00;102577.81;5047011;28;20201;-76
2023/01/23 00:09:45;;;;;;;39.07;15.20;;;;;;;-0.70;100.00;102579.38;5029193;28;20223;-76
2023/01/23 00:12:12;;;;;;;34.87;16.10;;;;;;;-0.70;100.00;102577.72;5047666;28;20595;-78
2023/01/23 00:14:40;;;;;;;31.60;15.33;;;;;;;-0.71;100.00;102575.94;5048335;28;20199;-76
2023/01/23 00:17:06;;;;;;;30.67;15.67;;;;;;;-0.72;100.00;102574.22;5024923;28;20203;-77
2023/01/23 00:19:33;;;;;;;32.10;16.20;;;;;;;-0.71;100.00;102572.50;5030214;28;20229;-76
2023/01/23 00:21:59;;;;;;;32.27;15.63;;;;;;;-0.71;100.00;102565.69;5049331;28;20207;-76
2023/01/23 00:24:26;;;;;;;36.63;15.93;;;;;;;-0.71;100.00;102578.50;5045748;28;20703;-76
2023/01/23 00:26:55;;;;;;;35.93;16.83;;;;;;;-0.72;100.00;102573.31;5046424;28;20219;-75
2023/01/23 00:29:21;;;;;;;37.97;16.07;;;;;;;-0.73;100.00;102577.56;5045032;28;20218;-76
2023/01/23 00:31:49;;;;;;;40.73;18.13;;;;;;;-0.72;100.00;102570.75;5047463;28;20199;-75
2023/01/23 00:34:16;;;;;;;40.87;16.77;;;;;;;-0.73;100.00;102572.44;5028407;28;20285;-76
2023/01/23 00:36:44;;;;;;;35.53;15.33;;;;;;;-0.73;100.00;102576.69;5047581;28;20191;-76
2023/01/23 00:39:15;;;;;;;30.50;14.97;;;;;;;-0.72;100.00;102578.44;5041636;28;20354;-75
2023/01/23 00:41:47;;;;;;;33.87;15.33;;;;;;;-0.74;100.00;102591.16;5046555;28;20204;-75
2023/01/23 00:44:13;;;;;;;35.63;16.13;;;;;;;-0.73;100.00;102589.50;5030956;28;20287;-77
2023/01/23 00:46:40;;;;;;;39.50;17.87;;;;;;;-0.72;100.00;102597.25;5046987;28;20876;-76
2023/01/23 00:49:08;;;;;;;37.23;16.70;;;;;;;-0.73;100.00;102594.63;5026361;28;20246;-75
2023/01/23 00:51:34;;;;;;;41.27;17.27;;;;;;;-0.74;100.00;102598.84;5047950;28;20199;-76
2023/01/23 00:54:01;;;;;;;38.47;17.73;;;;;;;-0.73;100.00;102592.06;5030044;28;20227;-78
2023/01/23 00:56:29;;;;;;;35.23;16.60;;;;;;;-0.76;100.00;102600.44;5043601;28;20195;-77
2023/01/23 00:58:56;;;;;;;44.33;16.97;;;;;;;-0.75;100.00;102599.66;5045938;28;20258;-76
2023/01/23 01:01:23;;;;;;;42.57;18.83;;;;;;;-0.74;100.00;102593.72;5047984;28;20290;-75
2023/01/23 01:03:49;;;;;;;45.20;18.50;;;;;;;-0.74;100.00;102593.72;5026688;28;20548;-76
2023/01/23 01:06:17;;;;;;;40.33;18.37;;;;;;;-0.74;100.00;102598.84;5045761;28;20218;-76
2023/01/23 01:08:44;;;;;;;46.63;17.73;;;;;;;-0.73;100.00;102594.63;5044285;28;20191;-76
2023/01/23 01:11:10;;;;;;;44.37;17.63;;;;;;;-0.73;100.00;102605.75;5026036;28;20310;-76
2023/01/23 01:13:37;;;;;;;40.03;16.97;;;;;;;-0.73;100.00;102607.44;5038154;28;20264;-76
2023/01/23 01:16:04;;;;;;;37.10;17.40;;;;;;;-0.72;100.00;102609.16;5045687;28;20208;-76
2023/01/23 01:18:31;;;;;;;43.30;16.70;;;;;;;-0.74;100.00;102611.66;5045362;28;20639;-75
2023/01/23 01:20:57;;;;;;;46.30;17.47;;;;;;;-0.72;100.00;102611.72;5046136;28;20203;-76
2023/01/23 01:23:25;;;;;;;40.30;17.57;;;;;;;-0.73;100.00;102608.28;5045853;28;20203;-75
2023/01/23 01:25:52;;;;;;;39.67;16.73;;;;;;;-0.74;100.00;102608.22;5029310;28;20457;-75
2023/01/23 01:28:20;;;;;;;43.27;17.60;;;;;;;-0.74;100.00;102613.34;5025085;28;20310;-77
2023/01/23 01:30:47;;;;;;;38.77;17.83;;;;;;;-0.75;100.00;102617.59;5048543;28;20684;-76
2023/01/23 01:33:15;;;;;;;42.17;18.10;;;;;;;-0.75;100.00;102617.59;5043500;28;20198;-76
2023/01/23 01:35:42;;;;;;;40.87;17.53;;;;;;;-0.74;100.00;102621.03;5028867;28;20208;-76
2023/01/23 01:38:09;;;;;;;39.03;17.30;;;;;;;-0.73;100.00;102621.09;5046972;28;20196;-76
2023/01/23 01:40:37;;;;;;;40.20;16.87;;;;;;;-0.74;100.00;102627.03;5030674;28;20234;-75
2023/01/23 01:43:06;;;;;;;39.03;17.10;;;;;;;-0.74;100.00;102633.84;5044722;28;20278;-76
2023/01/23 01:46:03;;;;;;;40.03;20.50;;;;;;;-0.74;100.00;102632.13;5046584;28;20658;-76
2023/01/23 01:48:34;;;;;;;43.57;19.40;;;;;;;-0.73;100.00;102636.47;5046808;28;20203;-76
2023/01/23 01:51:03;;;;;;;53.37;22.47;;;;;;;-0.72;100.00;102645.03;5041777;28;20287;-78
2023/01/23 01:53:31;;;;;;;47.67;21.87;;;;;;;-0.74;100.00;102639.81;5046273;28;20574;-76
2023/01/23 01:56:00;;;;;;;54.93;24.83;;;;;;;-0.73;100.00;102633.91;5051905;28;20200;-75
2023/01/23 01:58:29;;;;;;;55.43;21.03;;;;;;;-0.74;100.00;102637.25;5025802;28;20196;-76
2023/01/23 02:00:57;;;;;;;48.97;23.20;;;;;;;-0.73;100.00;102643.28;5039847;28;20211;-75
2023/01/23 02:03:24;;;;;;;57.83;22.70;;;;;;;-0.72;100.00;102637.34;5027627;28;20422;-76
2023/01/23 02:05:51;;;;;;;45.67;20.07;;;;;;;-0.72;100.00;102650.16;5027982;28;20215;-75
2023/01/23 02:08:22;;;;;;;53.13;22.57;;;;;;;-0.74;100.00;102641.53;5030156;28;20294;-76
2023/01/23 02:10:50;;;;;;;54.53;22.37;;;;;;;-0.73;100.00;102648.41;5046060;28;20706;-76
2023/01/23 02:13:30;;;;;;;46.07;19.60;;;;;;;-0.73;100.00;102654.41;5059944;28;20210;-76
2023/01/23 02:15:58;;;;;;;42.50;20.83;;;;;;;-0.73;100.00;102644.16;5043683;28;20205;-76
2023/01/23 02:18:25;;;;;;;64.77;25.30;;;;;;;-0.71;100.00;102644.25;5029831;28;20281;-75
2023/01/23 02:20:54;;;;;;;49.97;22.47;;;;;;;-0.72;100.00;102650.16;5046277;28;20469;-76
2023/01/23 02:23:30;;;;;;;49.30;22.90;;;;;;;-0.71;100.00;102651.94;5047373;28;20194;-76
2023/01/23 02:26:02;;;;;;;38.17;18.47;;;;;;;-0.72;100.00;102653.63;5028858;28;20298;-76
2023/01/23 02:28:41;;;;;;;41.37;20.00;;;;;;;-0.71;100.00;102655.38;5027447;28;20210;-78
2023/01/23 02:31:10;;;;;;;51.67;18.40;;;;;;;-0.72;100.00;102645.03;5028982;28;20210;-77
2023/01/23 02:33:46;;;;;;;40.97;18.03;;;;;;;-0.70;100.00;102648.56;5021626;28;20196;-75
2023/01/23 02:36:12;;;;;;;47.40;18.70;;;;;;;-0.71;100.00;102651.94;5045237;28;20298;-76
2023/01/23 02:38:49;;;;;;;44.43;17.40;;;;;;;-0.71;100.00;102651.94;5028277;28;20211;-75
2023/01/23 02:41:20;;;;;;;45.57;17.77;;;;;;;-0.71;100.00;102657.94;5024588;28;20201;-77
2023/01/23 02:43:48;;;;;;;35.50;17.37;;;;;;;-0.72;100.00;102651.06;5048583;28;20293;-77
2023/01/23 02:46:17;;;;;;;44.77;19.87;;;;;;;-0.71;100.00;102657.06;5046766;28;20768;-75
2023/01/23 02:48:44;;;;;;;36.87;17.67;;;;;;;-0.70;100.00;102657.16;5027457;28;20711;-75
2023/01/23 02:51:10;;;;;;;38.67;17.07;;;;;;;-0.70;100.00;102651.13;5025386;28;20200;-75
2023/01/23 02:53:41;;;;;;;41.50;18.33;;;;;;;-0.71;100.00;102652.81;5046493;28;20204;-76
2023/01/23 02:56:08;;;;;;;42.50;19.20;;;;;;;-0.70;100.00;102657.16;5031504;28;20531;-76
2023/01/23 03:01:23;;;;;;;38.10;17.33;;;;;;;-0.70;100.00;102667.38;5031999;28;20827;-76
2023/01/23 03:03:52;;;;;;;42.30;17.87;;;;;;;-0.68;100.00;102675.16;5047735;28;20209;-75
2023/01/23 03:06:19;;;;;;;39.40;18.17;;;;;;;-0.70;100.00;102677.63;5048301;28;20705;-75
2023/01/23 03:08:49;;;;;;;40.97;18.07;;;;;;;-0.70;100.00;102677.63;5044946;28;20230;-75
2023/01/23 03:11:17;;;;;;;41.23;17.83;;;;;;;-0.67;100.00;102679.47;5026019;28;20197;-77
2023/01/23 03:13:46;;;;;;;37.53;17.27;;;;;;;-0.67;100.00;102671.78;5031742;28;20210;-75
2023/01/23 03:16:12;;;;;;;43.87;17.63;;;;;;;-0.70;100.00;102680.19;5043788;28;20209;-76
2023/01/23 03:18:39;;;;;;;41.70;18.47;;;;;;;-0.69;100.00;102687.06;5032192;28;20293;-75
2023/01/23 03:21:06;;;;;;;38.20;17.70;;;;;;;-0.70;100.00;102685.31;5029064;28;21378;-76
2023/01/23 03:23:34;;;;;;;38.23;18.63;;;;;;;-0.68;100.00;102686.28;5030114;28;20660;-76
2023/01/23 03:26:02;;;;;;;39.50;17.33;;;;;;;-0.68;100.00;102693.09;5031976;28;20318;-76
2023/01/23 03:31:17;;;;;;;40.13;18.13;;;;;;;-0.68;100.00;102690.53;5049580;28;20346;-76
2023/01/23 03:33:45;;;;;;;43.20;17.53;;;;;;;-0.69;100.00;102692.19;5045390;28;20204;-78
2023/01/23 03:36:13;;;;;;;41.53;18.30;;;;;;;-0.69;100.00;102692.19;5024290;28;20257;-76
2023/01/23 03:41:23;;;;;;;38.30;17.47;;;;;;;-0.68;100.00;102693.09;5031310;28;20747;-76
2023/01/23 03:41:27;;;;;;;34.10;15.93;;;;;;;-0.70;100.00;102690.44;5050730;28;20191;-76
2023/01/23 03:43:58;;;;;;;44.63;16.87;;;;;;;-0.70;100.00;102685.31;5030732;28;20200;-75
2023/01/23 03:46:26;;;;;;;45.00;18.63;;;;;;;-0.70;100.00;102682.75;5030477;28;20648;-76
2023/01/23 03:48:53;;;;;;;44.80;19.63;;;;;;;-0.72;100.00;102686.03;5043960;28;20691;-76
2023/01/23 03:51:19;;;;;;;39.43;17.83;;;;;;;-0.73;100.00;102687.72;5047570;28;20187;-76
2023/01/23 03:53:46;;;;;;;43.87;17.60;;;;;;;-0.73;100.00;102702.22;5034440;28;20196;-77
2023/01/23 03:56:12;;;;;;;44.33;19.20;;;;;;;-0.73;100.00;102697.97;5034166;28;20241;-76
2023/01/23 03:58:41;;;;;;;38.27;17.77;;;;;;;-0.74;100.00;102692.75;5051684;28;20209;-76
2023/01/23 04:01:08;;;;;;;44.30;19.03;;;;;;;-0.75;100.00;102696.13;5049741;28;20203;-77
2023/01/23 04:03:39;;;;;;;48.90;19.67;;;;;;;-0.74;100.00;102693.63;5032001;28;20206;-76
2023/01/23 04:06:06;;;;;;;50.30;19.57;;;;;;;-0.75;100.00;102696.13;5051581;28;20727;-76
2023/01/23 04:08:32;;;;;;;38.47;18.27;;;;;;;-0.74;100.00;102695.31;5042153;28;20215;-76
2023/01/23 04:11:04;;;;;;;43.43;19.30;;;;;;;-0.76;100.00;102697.78;5023951;28;20246;-76
2023/01/23 04:13:31;;;;;;;40.93;18.13;;;;;;;-0.75;100.00;102699.56;5030677;28;20230;-77
2023/01/23 04:15:59;;;;;;;43.77;18.23;;;;;;;-0.74;100.00;102701.31;5048709;28;20207;-75
2023/01/23 04:18:26;;;;;;;42.30;18.13;;;;;;;-0.74;100.00;102693.63;5031771;28;20204;-76
2023/01/23 04:20:53;;;;;;;48.40;18.13;;;;;;;-0.74;100.00;102706.44;5024583;28;20708;-76
2023/01/23 04:23:21;;;;;;;49.73;18.47;;;;;;;-0.74;100.00;102709.00;5042545;28;20619;-77
2023/01/23 04:25:47;;;;;;;43.00;18.50;;;;;;;-0.74;100.00;102708.13;5029332;28;20283;-76
2023/01/23 04:28:15;;;;;;;42.00;18.13;;;;;;;-0.74;100.00;102713.25;5047152;28;20195;-76
2023/01/23 04:30:42;;;;;;;43.60;19.00;;;;;;;-0.73;100.00;102707.34;5047911;28;20219;-75
2023/01/23 04:33:16;;;;;;;46.60;18.90;;;;;;;-0.75;100.00;102711.50;5050934;28;20195;-76
2023/01/23 04:35:50;;;;;;;47.73;18.67;;;;;;;-0.75;100.00;102719.19;5045318;28;20575;-75
2023/01/23 04:38:17;;;;;;;47.10;18.13;;;;;;;-0.75;100.00;102720.06;5047291;28;20192;-76
2023/01/23 04:40:45;;;;;;;51.33;20.03;;;;;;;-0.74;100.00;102715.81;5024521;28;20219;-76
2023/01/23 04:43:12;;;;;;;46.83;22.10;;;;;;;-0.75;100.00;102709.81;5025908;28;20253;-76
2023/01/23 04:45:43;;;;;;;48.53;21.33;;;;;;;-0.75;100.00;102712.38;5029318;28;20691;-76
2023/01/23 04:48:33;;;;;;;49.67;21.70;;;;;;;-0.74;100.00;102713.25;5040284;28;20231;-76
2023/01/23 04:50:59;;;;;;;55.17;18.73;;;;;;;-0.74;100.00;102723.50;5049647;28;20560;-76
2023/01/23 04:53:27;;;;;;;45.63;19.30;;;;;;;-0.76;100.00;102720.84;5039332;28;20238;-76
2023/01/23 04:55:59;;;;;;;49.93;21.50;;;;;;;-0.75;100.00;102725.19;5049502;28;20725;-76
2023/01/23 04:58:27;;;;;;;46.77;19.20;;;;;;;-0.76;100.00;102728.53;5049009;28;20687;-76
2023/01/23 05:01:02;;;;;;;44.00;18.80;;;;;;;-0.75;100.00;102725.19;5031459;28;20655;-75
2023/01/23 05:03:31;;;;;;;45.63;18.70;;;;;;;-0.75;100.00;102725.19;5049336;28;20199;-75
2023/01/23 05:05:58;;;;;;;45.50;18.97;;;;;;;-0.77;100.00;102724.22;5028586;28;20215;-75
2023/01/23 05:08:26;;;;;;;38.87;18.60;;;;;;;-0.75;100.00;102726.88;5051241;28;20215;-76
2023/01/23 05:11:07;;;;;;;46.67;19.23;;;;;;;-0.77;100.00;102732.78;5031742;28;20194;-75
2023/01/23 05:13:34;;;;;;;51.93;19.97;;;;;;;-0.77;100.00;102739.59;5031147;28;20202;-76
2023/01/23 05:16:02;;;;;;;47.17;18.90;;;;;;;-0.75;100.00;102747.38;5035948;28;20195;-77
2023/01/23 05:18:37;;;;;;;44.77;18.17;;;;;;;-0.78;100.00;102745.50;5026589;28;20202;-76
2023/01/23 05:21:04;;;;;;;46.93;19.60;;;;;;;-0.76;100.00;102751.59;5030144;28;20245;-75
2023/01/23 05:23:30;;;;;;;47.50;21.23;;;;;;;-0.75;100.00;102753.38;5035347;28;20195;-76
2023/01/23 05:25:58;;;;;;;47.33;19.80;;;;;;;-0.76;100.00;102754.16;5032182;28;20218;-76
2023/01/23 05:28:27;;;;;;;43.73;18.80;;;;;;;-0.78;100.00;102759.19;5038587;28;20239;-76
2023/01/23 05:30:55;;;;;;;49.20;20.57;;;;;;;-0.75;100.00;102757.63;5062659;28;20226;-76
2023/01/23 05:33:31;;;;;;;47.33;19.57;;;;;;;-0.76;100.00;102756.72;5028360;28;20269;-76
2023/01/23 05:35:59;;;;;;;52.47;19.90;;;;;;;-0.76;100.00;102759.28;5028616;28;20742;-76
2023/01/23 05:38:26;;;;;;;52.10;19.47;;;;;;;-0.79;100.00;102760.00;5046201;28;20202;-76
2023/01/23 05:40:53;;;;;;;55.73;19.27;;;;;;;-0.77;100.00;102768.66;5031112;28;20199;-75
2023/01/23 05:43:45;;;;;;;51.43;21.10;;;;;;;-0.75;100.00;102765.31;5045118;28;20211;-75
2023/01/23 05:46:14;;;;;;;43.37;17.43;;;;;;;-0.77;100.00;102767.78;5045514;28;20286;-76
2023/01/23 05:48:49;;;;;;;48.33;19.53;;;;;;;-0.77;100.00;102770.34;5029021;28;20537;-76
2023/01/23 05:51:16;;;;;;;49.23;20.73;;;;;;;-0.79;100.00;102765.13;5028973;28;20277;-76
2023/01/23 05:53:43;;;;;;;48.73;18.60;;;;;;;-0.77;100.00;102770.34;5026169;28;20215;-77
2023/01/23 05:56:09;;;;;;;45.97;20.30;;;;;;;-0.78;100.00;102766.00;5027528;28;20196;-76
2023/01/23 05:58:48;;;;;;;48.63;19.27;;;;;;;-0.78;100.00;102772.00;5024549;28;20222;-76
2023/01/23 06:01:24;;;;;;;50.03;19.73;;;;;;;-0.77;100.00;102778.03;5049276;23;20710;-72
2023/01/23 06:04:16;;;;;;;44.70;19.07;;;;;;;-0.77;100.00;102775.47;5058513;28;20206;-72
2023/01/23 06:06:59;;;;;;;54.40;19.93;;;;;;;-0.76;100.00;102779.78;5041657;28;20214;-72
2023/01/23 06:09:25;;;;;;;51.87;19.53;;;;;;;-0.78;100.00;102781.38;5051616;28;20297;-72
2023/01/23 06:11:51;;;;;;;46.77;17.57;;;;;;;-0.78;100.00;102787.38;5037127;28;20195;-72
2023/01/23 06:14:19;;;;;;;45.97;19.43;;;;;;;-0.79;100.00;102788.19;5026357;28;20213;-72
2023/01/23 06:16:45;;;;;;;50.13;19.10;;;;;;;-0.78;100.00;102791.63;5028310;28;20195;-72
2023/01/23 06:19:12;;;;;;;48.83;21.00;;;;;;;-0.78;100.00;102800.19;5027434;28;20951;-72
2023/01/23 06:21:40;;;;;;;48.73;19.40;;;;;;;-0.78;100.00;102797.63;5040313;28;20566;-71
2023/01/23 06:24:07;;;;;;;49.00;19.43;;;;;;;-0.81;100.00;102794.91;5040978;28;20202;-72
2023/01/23 06:26:33;;;;;;;42.00;18.57;;;;;;;-0.78;100.00;102802.75;5016036;28;20226;-72
2023/01/23 06:29:00;;;;;;;49.70;18.93;;;;;;;-0.78;100.00;102805.31;5027877;28;20242;-71
2023/01/23 06:31:31;;;;;;;48.30;19.37;;;;;;;-0.79;100.00;102806.13;5023838;28;20542;-71
2023/01/23 06:33:59;;;;;;;53.37;19.97;;;;;;;-0.79;100.00;102805.25;5024665;28;20273;-71
2023/01/23 06:36:30;;;;;;;43.43;19.40;;;;;;;-0.80;100.00;102806.91;5023164;28;20202;-72
2023/01/23 06:38:58;;;;;;;45.17;18.77;;;;;;;-0.80;100.00;102811.16;5034911;28;20222;-72
2023/01/23 06:41:31;;;;;;;46.77;17.90;;;;;;;-0.81;100.00;102805.16;5026919;28;20298;-72
2023/01/23 06:44:02;;;;;;;44.63;19.63;;;;;;;-0.79;100.00;102807.81;5022135;28;20286;-71
2023/01/23 06:46:30;;;;;;;53.53;20.83;;;;;;;-0.80;100.00;102811.16;5033715;28;20304;-72
2023/01/23 06:48:56;;;;;;;54.23;21.00;;;;;;;-0.78;100.00;102805.31;5021375;28;20291;-71
2023/01/23 06:51:23;;;;;;;48.17;20.67;;;;;;;-0.80;100.00;102808.59;5023538;28;20218;-72
2023/01/23 06:53:50;;;;;;;53.23;21.27;;;;;;;-0.79;100.00;102813.81;5026695;28;20318;-72
2023/01/23 06:56:16;;;;;;;47.13;18.90;;;;;;;-0.79;100.00;102810.38;5020061;28;20565;-71
2023/01/23 06:58:45;;;;;;;47.30;20.43;;;;;;;-0.80;100.00;102814.59;5024795;28;20206;-71
2023/01/23 07:01:20;;;;;;;56.13;21.43;;;;;;;-0.80;100.00;102821.41;5048402;28;20235;-71
2023/01/23 07:04:07;;;;;;;50.90;21.37;;;;;;;-0.81;100.00;102829.88;5046043;28;20210;-71
2023/01/23 07:06:34;;;;;;;54.93;21.70;;;;;;;-0.82;100.00;102834.13;5040859;28;20700;-71
2023/01/23 07:09:04;;;;;;;54.80;21.47;;;;;;;-0.83;100.00;102836.59;5048334;28;20214;-71
2023/01/23 07:11:30;;;;;;;44.60;21.07;;;;;;;-0.80;100.00;102831.66;5027443;28;20262;-71
2023/01/23 07:13:57;;;;;;;51.90;21.13;;;;;;;-0.81;100.00;102827.31;5042036;28;20551;-72
2023/01/23 07:16:25;;;;;;;53.87;20.87;;;;;;;-0.82;100.00;102835.81;5022736;28;20234;-71
2023/01/23 07:18:54;;;;;;;50.33;21.03;;;;;;;-0.82;100.00;102836.69;5040154;28;20255;-71
2023/01/23 07:21:22;;;;;;;56.57;23.33;;;;;;;-0.80;100.00;102847.00;5043715;28;20220;-72
2023/01/23 07:23:49;;;;;;;46.50;20.70;;;;;;;-0.79;100.00;102844.53;5041796;28;20274;-72
2023/01/23 07:26:16;;;;;;;49.43;21.23;;;;;;;-0.81;100.00;102848.69;5046836;28;20199;-72
2023/01/23 07:28:42;;;;;;;51.97;20.87;;;;;;;-0.81;100.00;102846.16;5043286;28;20214;-71
2023/01/23 07:31:08;;;;;;;48.07;20.67;;;;;;;-0.82;100.00;102838.38;5042435;28;20226;-71
2023/01/23 07:33:35;;;;;;;46.63;20.80;;;;;;;-0.82;100.00;102843.50;5050322;28;20453;-72
2023/01/23 07:36:05;;;;;;;51.17;20.73;;;;;;;-0.81;100.00;102852.91;5044619;28;20196;-71
2023/01/23 07:38:32;;;;;;;52.40;20.20;;;;;;;-0.79;100.00;102856.47;5045801;28;20210;-72
2023/01/23 07:40:59;;;;;;;48.97;21.17;;;;;;;-0.81;100.00;102855.47;5046519;28;20625;-72
2023/01/23 07:43:26;;;;;;;43.83;19.37;;;;;;;-0.79;100.00;102857.34;5038591;28;20200;-71
2023/01/23 07:45:52;;;;;;;47.43;21.20;;;;;;;-0.79;100.00;102869.28;5045718;28;20540;-72
2023/01/23 07:48:19;;;;;;;52.57;20.07;;;;;;;-0.78;100.00;102866.78;5047792;28;20203;-71
2023/01/23 07:50:45;;;;;;;49.63;20.00;;;;;;;-0.76;100.00;102866.88;5044520;28;20302;-71
2023/01/23 07:53:11;;;;;;;51.93;21.60;;;;;;;-0.74;100.00;102877.22;5044677;28;20202;-72
2023/01/23 07:55:39;;;;;;;45.07;20.87;;;;;;;-0.74;100.00;102877.22;5043929;28;20214;-72
2023/01/23 07:58:05;;;;;;;48.63;19.97;;;;;;;-0.74;100.00;102879.78;5040356;28;20214;-71
2023/01/23 08:00:32;;;;;;;44.27;21.43;;;;;;;-0.77;100.00;102875.38;5045661;28;20237;-72
2023/01/23 08:02:58;;;;;;;49.67;21.73;;;;;;;-0.76;100.00;102879.69;5038889;28;20204;-71
2023/01/23 08:05:24;;;;;;;49.93;20.37;;;;;;;-0.75;100.00;102884.03;5036900;28;20204;-71
2023/01/23 08:07:51;;;;;;;45.23;20.53;;;;;;;-0.77;100.00;102893.31;5041868;28;20219;-71
2023/01/23 08:10:17;;;;;;;44.33;19.57;;;;;;;-0.75;100.00;102896.84;5045643;28;20635;-71
2023/01/23 08:12:45;;;;;;;49.57;20.80;;;;;;;-0.73;100.00;102897.78;5045448;28;20207;-71
2023/01/23 08:15:12;;;;;;;40.77;19.77;;;;;;;-0.71;100.00;102897.88;5046272;28;20197;-72
2023/01/23 08:17:38;;;;;;;48.07;19.73;;;;;;;-0.70;100.00;102897.97;5045845;28;20553;-71
2023/01/23 08:20:05;;;;;;;49.97;20.30;;;;;;;-0.68;100.00;102906.63;5046355;28;20226;-72
2023/01/23 08:22:32;;;;;;;49.73;21.37;;;;;;;-0.67;100.00;102910.97;5042712;28;20203;-72
2023/01/23 08:24:58;;;;;;;50.17;20.57;;;;;;;-0.68;100.00;102908.31;5041930;28;20215;-72
2023/01/23 08:27:25;;;;;;;50.47;22.27;;;;;;;-0.67;100.00;102920.31;5045588;28;20222;-72
2023/01/23 08:29:52;;;;;;;42.33;18.40;;;;;;;-0.65;100.00;102918.72;5044620;28;20230;-71
2023/01/23 08:32:19;;;;;;;49.70;19.87;;;;;;;-0.65;100.00;102919.63;5044481;28;20214;-72
2023/01/23 08:34:46;;;;;;;54.70;22.17;;;;;;;-0.64;100.00;102916.25;5039861;28;20214;-72
2023/01/23 08:37:12;;;;;;;49.30;21.13;;;;;;;-0.61;100.00;102919.00;5043019;28;20196;-72
2023/01/23 08:39:38;;;;;;;43.43;18.93;;;;;;;-0.60;100.00;102930.09;5039987;28;20216;-71
2023/01/23 08:42:05;;;;;;;48.57;20.80;;;;;;;-0.61;100.00;102924.13;5042560;28;20273;-72
2023/01/23 08:44:33;;;;;;;51.30;20.90;;;;;;;-0.60;100.00;102928.47;5045300;28;20203;-72
2023/01/23 08:47:02;;;;;;;50.73;19.93;;;;;;;-0.60;100.00;102925.00;5037154;28;20197;-71
2023/01/23 08:49:29;;;;;;;53.13;21.67;;;;;;;-0.59;100.00;102929.31;5039939;28;20275;-71
2023/01/23 08:51:57;;;;;;;46.90;21.60;;;;;;;-0.57;100.00;102933.72;5044530;28;20572;-72
2023/01/23 08:54:24;;;;;;;52.60;21.13;;;;;;;-0.53;100.00;102929.66;5047148;28;20210;-71
2023/01/23 08:56:50;;;;;;;51.00;20.37;;;;;;;-0.50;100.00;102929.84;5038383;28;20207;-72
2023/01/23 08:59:17;;;;;;;50.57;22.30;;;;;;;-0.49;100.00;102926.50;5020641;28;20209;-71
2023/01/23 09:01:45;;;;;;;49.23;19.83;;;;;;;-0.41;100.00;102932.03;5043640;28;20195;-71
2023/01/23 09:04:12;;;;;;;50.00;20.03;;;;;;;-0.45;100.00;102933.53;5037670;28;20206;-72
2023/01/23 09:06:38;;;;;;;45.77;20.13;;;;;;;-0.41;100.00;102934.59;5039980;28;20203;-72
2023/01/23 09:09:05;;;;;;;50.23;21.50;;;;;;;-0.37;100.00;102941.66;5046618;28;20242;-72
2023/01/23 09:11:31;;;;;;;39.77;19.97;;;;;;;-0.35;100.00;102945.22;5042661;28;20250;-71
2023/01/23 09:13:58;;;;;;;53.90;23.37;;;;;;;-0.33;100.00;102947.88;5039189;28;20203;-71
2023/01/23 09:16:24;;;;;;;52.50;22.40;;;;;;;-0.30;100.00;102958.25;5027348;28;20234;-72
2023/01/23 09:18:51;;;;;;;52.63;22.37;;;;;;;-0.30;100.00;102954.03;5027325;28;20221;-72
2023/01/23 09:21:18;;;;;;;46.93;21.50;;;;;;;-0.30;100.00;102950.56;5044889;28;20219;-72
2023/01/23 09:23:45;;;;;;;48.37;21.03;;;;;;;-0.33;100.00;102950.44;5044087;28;20457;-71
2023/01/23 09:26:13;;;;;;;45.10;19.57;;;;;;;-0.27;100.00;102953.31;5040422;28;20286;-71
2023/01/23 09:28:42;;;;;;;52.20;21.00;;;;;;;-0.31;100.00;102953.94;5038990;28;20631;-72
2023/01/23 09:31:10;;;;;;;50.40;20.50;;;;;;;-0.25;100.00;102951.72;5041959;28;20218;-72
2023/01/23 09:33:37;;;;;;;59.23;21.27;;;;;;;-0.24;100.00;102950.94;5023804;28;20289;-72
2023/01/23 09:36:08;;;;;;;46.93;19.77;;;;;;;-0.20;100.00;102946.03;5042023;28;20198;-72
2023/01/23 09:38:36;;;;;;;42.50;20.27;;;;;;;-0.15;100.00;102945.44;5041724;28;20623;-71
2023/01/23 09:41:09;;;;;;;51.43;22.80;;;;;;;-0.19;100.00;102949.50;5041747;28;20583;-72
2023/01/23 09:43:40;;;;;;;44.00;20.00;;;;;;;-0.19;100.00;102941.81;5039015;28;20206;-71
2023/01/23 09:46:16;;;;;;;46.10;20.93;;;;;;;-0.14;100.00;102942.94;5040812;28;20203;-72
2023/01/23 09:48:45;;;;;;;47.17;19.57;;;;;;;-0.20;100.00;102946.03;5041339;28;20392;-71
2023/01/23 09:51:20;;;;;;;52.43;21.47;;;;;;;-0.16;100.00;102946.22;5050296;28;20241;-71
2023/01/23 09:53:48;;;;;;;46.17;20.63;;;;;;;-0.12;100.00;102946.47;5051860;28;20190;-72
2023/01/23 09:56:28;;;;;;;51.07;20.67;;;;;;;-0.15;100.00;102953.13;5045156;28;20222;-71
2023/01/23 09:59:00;;;;;;;49.23;21.13;;;;;;;-0.14;100.00;102948.06;5040746;28;20199;-72
2023/01/23 10:01:29;;;;;;;51.13;20.47;;;;;;;-0.10;100.00;102954.25;5043339;28;20231;-71
2023/01/23 10:03:58;;;;;;;50.60;20.27;;;;;;;-0.04;100.00;102944.31;5045250;28;20202;-71
2023/01/23 10:06:26;;;;;;;47.90;19.90;;;;;;;-0.02;100.00;102950.41;5046289;28;20214;-72
2023/01/23 10:09:17;;;;;;;46.03;20.70;;;;;;;-0.04;100.00;102944.31;5044348;28;20216;-72
2023/01/23 10:11:56;;;;;;;51.57;20.73;;;;;;;-0.06;100.00;102948.47;5041594;28;20218;-71
2023/01/23 10:14:42;;;;;;;54.83;21.67;;;;;;;-0.03;100.00;102946.09;5049463;28;20217;-72
2023/01/23 10:17:18;;;;;;;45.13;19.97;;;;;;;0.01;100.00;102942.88;5047994;28;20194;-72
2023/01/23 10:20:13;;;;;;;50.67;20.27;;;;;;;0.03;100.00;102956.66;5043106;28;20218;-71
2023/01/23 10:22:46;;;;;;;49.43;19.97;;;;;;;0.02;100.00;102948.88;5042330;28;20199;-71
2023/01/23 10:25:18;;;;;;;55.57;21.97;;;;;;;-0.06;100.00;102956.19;5043606;28;20322;-72
2023/01/23 10:27:46;;;;;;;49.53;21.37;;;;;;;-0.04;100.00;102957.13;5041382;28;20194;-71
2023/01/23 10:30:32;;;;;;;47.83;21.07;;;;;;;-0.02;100.00;102953.88;5042039;28;20211;-72
2023/01/23 10:33:02;;;;;;;49.77;19.53;;;;;;;-0.02;100.00;102955.53;5040458;28;20230;-71
2023/01/23 10:35:35;;;;;;;57.90;19.90;;;;;;;0.03;100.00;102948.09;5045036;28;20659;-72
2023/01/23 10:38:07;;;;;;;46.60;20.87;;;;;;;0.04;100.00;102952.44;5041814;28;20578;-72
2023/01/23 10:43:20;;;;;;;46.03;18.60;;;;;;;0.14;100.00;102942.75;5041225;28;20258;-71
2023/01/23 10:45:49;;;;;;;40.73;18.93;;;;;;;0.18;100.00;102939.56;5040925;28;20592;-71
2023/01/23 10:48:37;;;;;;;46.40;20.27;;;;;;;0.17;100.00;102942.03;5041112;28;20205;-72
2023/01/23 10:51:04;;;;;;;44.70;19.43;;;;;;;0.12;100.00;102941.81;5039258;28;20620;-72
2023/01/23 10:53:30;;;;;;;46.87;19.73;;;;;;;0.14;100.00;102947.00;5041870;28;20361;-72
2023/01/23 10:56:00;;;;;;;47.77;19.67;;;;;;;0.08;100.00;102942.41;5035799;28;20272;-71
2023/01/23 10:58:32;;;;;;;51.63;20.17;;;;;;;0.05;100.00;102941.38;5032112;28;20209;-72
2023/01/23 11:00:59;;;;;;;45.43;19.60;;;;;;;0.05;100.00;102941.38;5044990;28;20226;-71
2023/01/23 11:03:32;;;;;;;45.57;19.73;;;;;;;0.05;100.00;102944.81;5045475;28;20278;-71
2023/01/23 11:06:03;;;;;;;44.83;19.33;;;;;;;0.13;100.00;102930.72;5046769;28;20222;-72
2023/01/23 11:08:31;;;;;;;42.47;19.43;;;;;;;0.13;100.00;102940.97;5049032;28;20563;-72
2023/01/23 11:11:18;;;;;;;40.97;19.00;;;;;;;0.09;100.00;102940.72;5047193;28;20598;-71
2023/01/23 11:13:46;;;;;;;43.27;19.23;;;;;;;0.03;100.00;102938.72;5046952;28;20193;-71
2023/01/23 11:16:14;;;;;;;46.67;20.13;;;;;;;0.08;100.00;102937.28;5045862;28;20210;-72
2023/01/23 11:18:43;;;;;;;40.40;18.43;;;;;;;0.10;100.00;102933.13;5047282;28;20591;-72
2023/01/23 11:21:20;;;;;;;43.83;18.70;;;;;;;0.13;100.00;102940.13;5046127;28;20215;-71